Time;durP1;ratioP1;P1;durP2;ratioP2;P2;SDS_P1;SDS_P2;PMS_P1;PMS_P2;Temp;Humidity;BMP_temperature;BMP_pressure;BME280_temperature;BME280_humidity;BME280_pressure;Samples;Min_cycle;Max_cycle;Signal;HPM_P1;HPM_P2
2023/06/24 00:02:41;;;;;;;5.17;4.67;;;;;;;21.65;48.22;99582.75;6889770;28;20342;-85
2023/06/24 00:06:04;;;;;;;5.60;4.70;;;;;;;21.69;48.49;99600.38;6888198;28;20277;-86
2023/06/24 00:09:37;;;;;;;5.20;4.53;;;;;;;21.80;47.27;99611.22;6886799;28;20702;-85
2023/06/24 00:13:01;;;;;;;4.57;4.17;;;;;;;21.13;49.60;99614.47;6888614;28;20231;-85
2023/06/24 00:16:26;;;;;;;6.30;4.93;;;;;;;20.25;52.03;99613.59;6888682;28;20216;-86
2023/06/24 00:19:48;;;;;;;4.57;4.13;;;;;;;20.43;51.71;99607.88;6888997;28;20235;-85
2023/06/24 00:23:14;;;;;;;4.70;4.13;;;;;;;20.90;50.92;99614.69;6888404;28;20293;-85
2023/06/24 00:26:36;;;;;;;5.50;4.47;;;;;;;21.02;50.04;99611.81;6908399;28;20220;-85
2023/06/24 00:29:57;;;;;;;5.03;4.30;;;;;;;20.48;50.08;99533.13;6896851;28;20714;-85
2023/06/24 00:33:20;;;;;;;5.07;4.37;;;;;;;20.90;50.26;99620.16;6888856;28;20259;-85
2023/06/24 00:36:43;;;;;;;5.70;4.83;;;;;;;19.69;51.62;99509.59;6888983;28;20210;-85
2023/06/24 00:40:11;;;;;;;6.00;4.37;;;;;;;20.17;52.50;99627.66;6888809;28;20846;-85
2023/06/24 00:43:33;;;;;;;6.27;4.53;;;;;;;20.12;52.22;99596.63;6889202;28;20235;-85
2023/06/24 00:46:55;;;;;;;5.10;4.60;;;;;;;20.56;51.31;99610.28;6888346;28;20205;-85
2023/06/24 00:50:17;;;;;;;5.33;4.70;;;;;;;19.60;54.09;99617.81;6888673;28;20259;-85
2023/06/24 00:53:38;;;;;;;4.87;4.20;;;;;;;19.50;54.47;99606.66;6888982;28;20287;-85
2023/06/24 00:57:01;;;;;;;5.03;4.63;;;;;;;19.98;53.09;99619.91;6888860;28;20240;-85
2023/06/24 01:00:23;;;;;;;5.13;4.63;;;;;;;19.29;55.29;99596.34;6888650;28;20313;-85
2023/06/24 01:03:44;;;;;;;5.27;4.30;;;;;;;19.31;54.32;99564.16;6888640;28;20360;-85
2023/06/24 01:07:06;;;;;;;5.27;4.40;;;;;;;19.21;55.55;99606.88;6887624;28;20326;-86
2023/06/24 01:10:28;;;;;;;5.50;5.00;;;;;;;19.59;52.74;99509.44;6888099;28;20317;-85
2023/06/24 01:13:51;;;;;;;6.53;4.60;;;;;;;19.72;52.07;99506.41;6887858;28;20291;-85
2023/06/24 01:17:16;;;;;;;4.70;4.30;;;;;;;20.48;51.42;99597.00;6887242;28;20269;-85
2023/06/24 01:20:46;;;;;;;5.20;4.53;;;;;;;20.20;52.34;99596.22;6888309;28;20221;-85
2023/06/24 01:24:29;;;;;;;5.03;4.53;;;;;;;20.29;52.21;99598.31;6887978;28;20204;-85
2023/06/24 01:28:13;;;;;;;4.93;3.90;;;;;;;20.62;50.84;99597.47;6887423;28;20301;-86
2023/06/24 01:31:39;;;;;;;4.83;4.43;;;;;;;20.32;51.13;99578.66;6887460;28;20224;-86
2023/06/24 01:35:03;;;;;;;4.57;4.17;;;;;;;20.73;50.24;99589.16;6889846;28;20693;-86
2023/06/24 01:38:30;;;;;;;6.47;5.00;;;;;;;19.91;52.20;99572.66;6887252;28;20342;-85
2023/06/24 01:41:57;;;;;;;6.57;4.80;;;;;;;19.56;52.36;99498.13;6887881;28;20205;-85
2023/06/24 01:45:21;;;;;;;4.80;4.40;;;;;;;19.85;52.10;99510.69;6889320;28;20292;-85
2023/06/24 01:48:44;;;;;;;5.37;4.40;;;;;;;19.85;52.13;99519.75;6888742;28;20246;-86
2023/06/24 01:52:08;;;;;;;5.33;4.93;;;;;;;20.12;52.55;99581.06;6887748;28;20209;-85
2023/06/24 01:55:30;;;;;;;5.00;4.60;;;;;;;19.86;52.15;99498.72;6886757;28;20297;-86
2023/06/24 01:59:43;;;;;;;5.00;4.53;;;;;;;19.89;52.94;99577.56;6889547;28;20240;-85
2023/06/24 02:03:05;;;;;;;5.00;4.50;;;;;;;20.36;51.32;99582.56;6887639;28;20239;-85
2023/06/24 02:06:29;;;;;;;5.47;4.97;;;;;;;20.03;52.19;99598.06;6908167;28;20280;-85
2023/06/24 02:09:52;;;;;;;5.90;4.70;;;;;;;19.97;52.87;99585.38;6917508;28;20232;-85
2023/06/24 02:13:13;;;;;;;4.90;4.47;;;;;;;19.82;53.47;99587.84;6918216;28;20298;-85
2023/06/24 02:16:36;;;;;;;5.10;4.60;;;;;;;20.21;51.80;99590.50;6917361;28;20737;-86
2023/06/24 02:19:58;;;;;;;5.67;5.17;;;;;;;20.02;52.16;99580.84;6917747;28;20230;-85
2023/06/24 02:23:26;;;;;;;5.03;4.53;;;;;;;20.01;51.80;99578.34;6909367;28;20238;-85
2023/06/24 02:26:48;;;;;;;4.97;4.47;;;;;;;19.95;51.30;99555.53;6916538;28;20285;-85
2023/06/24 02:30:10;;;;;;;5.80;5.03;;;;;;;19.66;53.20;99578.53;6898387;28;20291;-84
2023/06/24 02:33:32;;;;;;;5.77;5.03;;;;;;;19.36;54.07;99567.00;6917494;28;20279;-84
2023/06/24 02:36:54;;;;;;;5.20;4.67;;;;;;;19.72;53.14;99584.91;6916323;28;20278;-84
2023/06/24 02:40:17;;;;;;;5.63;5.03;;;;;;;19.93;52.26;99587.78;6916732;28;20276;-83
2023/06/24 02:43:39;;;;;;;7.97;4.93;;;;;;;19.94;51.67;99583.13;6917295;28;20245;-84
2023/06/24 02:47:00;;;;;;;6.63;4.90;;;;;;;19.18;53.50;99533.47;6916119;28;20267;-84
2023/06/24 02:50:23;;;;;;;6.30;4.87;;;;;;;19.52;53.71;99577.13;6917177;28;20239;-83
2023/06/24 02:53:46;;;;;;;5.73;5.13;;;;;;;19.75;52.84;99576.22;6917290;28;20208;-83
2023/06/24 02:57:09;;;;;;;5.47;4.97;;;;;;;19.21;54.03;99572.13;6917439;28;20294;-84
2023/06/24 03:00:33;;;;;;;5.27;4.63;;;;;;;19.52;52.85;99565.38;6918012;28;20709;-83
2023/06/24 03:03:55;;;;;;;5.00;4.60;;;;;;;19.55;53.32;99584.03;6917735;28;20216;-84
2023/06/24 03:07:20;;;;;;;5.57;5.07;;;;;;;19.82;52.49;99572.22;6917539;28;20213;-83
2023/06/24 03:10:42;;;;;;;6.43;5.50;;;;;;;19.58;52.94;99583.56;6917306;28;20224;-84
2023/06/24 03:14:04;;;;;;;8.80;7.47;;;;;;;19.67;52.43;99590.28;6917540;28;20304;-84
2023/06/24 03:17:26;;;;;;;5.43;4.83;;;;;;;19.49;52.92;99588.56;6916548;28;20266;-83
2023/06/24 03:20:48;;;;;;;5.20;4.70;;;;;;;19.19;53.47;99565.22;6917315;28;20284;-84
2023/06/24 03:24:09;;;;;;;7.63;4.87;;;;;;;19.36;53.07;99591.59;6917826;28;20284;-83
2023/06/24 03:27:31;;;;;;;5.23;4.73;;;;;;;18.93;53.54;99554.81;6916456;28;20342;-84
2023/06/24 03:30:54;;;;;;;5.73;4.87;;;;;;;18.88;54.62;99614.81;6917454;28;20235;-83
2023/06/24 03:34:16;;;;;;;7.07;5.60;;;;;;;19.08;54.15;99564.19;6917431;28;20287;-84
2023/06/24 03:37:38;;;;;;;5.97;5.37;;;;;;;18.89;54.19;99531.78;6916302;28;20200;-85
2023/06/24 03:40:59;;;;;;;5.83;5.30;;;;;;;18.73;55.46;99620.78;6917249;28;20768;-83
2023/06/24 03:44:21;;;;;;;6.63;5.00;;;;;;;18.25;55.00;99478.13;6916828;28;20266;-84
2023/06/24 03:47:43;;;;;;;5.93;5.33;;;;;;;19.00;55.06;99616.50;6916221;28;20219;-84
2023/06/24 03:51:05;;;;;;;5.30;4.80;;;;;;;18.86;55.33;99622.44;6917142;28;20236;-84
2023/06/24 03:54:26;;;;;;;6.37;5.30;;;;;;;18.71;55.84;99617.47;6916641;28;20238;-84
2023/06/24 03:57:50;;;;;;;5.60;5.10;;;;;;;19.04;55.54;99639.53;6906361;28;20208;-83
2023/06/24 04:01:11;;;;;;;5.53;4.93;;;;;;;19.60;53.04;99634.22;6890117;28;20315;-83
2023/06/24 04:04:34;;;;;;;5.10;4.60;;;;;;;19.29;53.86;99636.56;6889528;28;20209;-84
2023/06/24 04:07:56;;;;;;;5.50;5.00;;;;;;;19.31;54.08;99642.59;6888774;28;20331;-83
2023/06/24 04:11:17;;;;;;;5.77;5.17;;;;;;;19.38;53.77;99648.78;6889450;28;20333;-84
2023/06/24 04:14:39;;;;;;;5.17;4.73;;;;;;;19.44;53.48;99654.13;6889073;28;20698;-84
2023/06/24 04:18:00;;;;;;;6.57;5.63;;;;;;;18.98;54.71;99637.75;6887691;28;20345;-83
2023/06/24 04:21:23;;;;;;;6.57;5.60;;;;;;;18.72;54.71;99607.34;6889083;28;20410;-83
2023/06/24 04:24:45;;;;;;;7.97;6.03;;;;;;;19.48;53.69;99663.50;6889308;28;20307;-83
2023/06/24 04:28:06;;;;;;;13.77;12.27;;;;;;;19.34;54.21;99667.56;6887458;28;20301;-84
2023/06/24 04:31:28;;;;;;;11.77;9.77;;;;;;;19.42;53.59;99663.63;6888012;28;20832;-84
2023/06/24 04:34:50;;;;;;;9.97;6.70;;;;;;;19.23;54.36;99652.00;6889020;28;20212;-83
2023/06/24 04:38:25;;;;;;;6.40;5.70;;;;;;;19.69;53.51;99667.50;6887327;28;20292;-83
2023/06/24 04:41:47;;;;;;;5.83;5.33;;;;;;;19.51;54.02;99668.50;6889011;28;20298;-83
2023/06/24 04:45:09;;;;;;;5.70;5.20;;;;;;;19.27;55.08;99671.53;6888877;28;20357;-84
2023/06/24 04:48:30;;;;;;;5.43;4.93;;;;;;;19.25;54.98;99608.03;6888188;28;20206;-84
2023/06/24 04:51:52;;;;;;;6.00;5.20;;;;;;;19.73;54.41;99668.66;6889075;28;20279;-85
2023/06/24 04:55:16;;;;;;;5.10;4.50;;;;;;;20.27;53.21;99665.38;6888294;28;20291;-83
2023/06/24 04:58:37;;;;;;;5.67;5.10;;;;;;;21.16;51.22;99663.31;6888170;28;20577;-84
2023/06/24 05:01:59;;;;;;;5.40;4.90;;;;;;;21.05;50.48;99581.97;6888199;28;20214;-83
2023/06/24 05:05:23;;;;;;;5.00;4.50;;;;;;;21.67;49.89;99660.19;6900948;28;20299;-83
2023/06/24 05:08:45;;;;;;;5.83;5.07;;;;;;;21.86;48.72;99662.38;6914729;28;20340;-84
2023/06/24 05:12:09;;;;;;;6.07;5.20;;;;;;;21.47;50.52;99666.22;6915015;28;20308;-84
2023/06/24 05:15:30;;;;;;;5.27;4.77;;;;;;;20.88;51.04;99589.41;6915092;28;20254;-83
2023/06/24 05:18:52;;;;;;;6.93;5.63;;;;;;;21.75;50.25;99668.81;6914506;28;20707;-83
2023/06/24 05:22:13;;;;;;;5.40;4.90;;;;;;;22.35;49.00;99665.88;6914983;28;20268;-83
2023/06/24 05:25:35;;;;;;;5.17;4.67;;;;;;;22.74;48.02;99651.72;6914176;28;20279;-83
2023/06/24 05:28:58;;;;;;;5.20;4.70;;;;;;;22.89;47.98;99667.53;6913840;28;20223;-84
2023/06/24 05:32:20;;;;;;;5.00;4.53;;;;;;;23.19;47.04;99649.31;6914984;28;20325;-83
2023/06/24 05:35:41;;;;;;;5.30;4.67;;;;;;;23.90;45.70;99662.34;6914605;28;20197;-84
2023/06/24 05:39:05;;;;;;;5.70;5.10;;;;;;;24.36;44.02;99658.59;6913923;28;20232;-83
2023/06/24 05:42:26;;;;;;;6.10;5.20;;;;;;;24.80;42.98;99662.53;6913167;28;20211;-84
2023/06/24 05:45:49;;;;;;;6.63;4.50;;;;;;;25.31;42.94;99663.31;6908309;28;20290;-83
2023/06/24 05:49:11;;;;;;;6.23;4.27;;;;;;;25.94;40.13;99660.63;6913619;28;20217;-84
2023/06/24 05:52:33;;;;;;;4.97;4.57;;;;;;;26.27;39.93;99667.34;6893029;28;20318;-83
2023/06/24 05:55:54;;;;;;;4.47;4.07;;;;;;;26.71;39.32;99660.69;6892923;28;20296;-83
2023/06/24 05:59:16;;;;;;;5.33;4.60;;;;;;;27.07;38.94;99664.81;6892492;28;20871;-83
2023/06/24 06:02:38;;;;;;;5.50;4.83;;;;;;;26.69;39.85;99668.47;6892461;28;20205;-82
2023/06/24 06:06:00;;;;;;;5.10;4.70;;;;;;;27.30;37.48;99660.47;6891778;28;20204;-83
2023/06/24 06:09:22;;;;;;;5.40;4.90;;;;;;;27.66;36.95;99658.94;6891738;28;20276;-83
2023/06/24 06:12:44;;;;;;;4.60;4.20;;;;;;;27.58;37.63;99657.66;6891793;28;20293;-83
2023/06/24 06:16:06;;;;;;;4.97;4.23;;;;;;;27.70;37.15;99660.00;6892098;28;20296;-87
2023/06/24 06:19:28;;;;;;;4.77;4.27;;;;;;;28.10;36.67;99651.19;6891657;28;20269;-87
2023/06/24 06:22:51;;;;;;;4.57;4.17;;;;;;;28.42;35.29;99646.56;6892131;28;20350;-85
2023/06/24 06:26:12;;;;;;;4.60;4.20;;;;;;;28.57;35.29;99642.75;6896111;28;20274;-85
2023/06/24 06:29:34;;;;;;;4.67;4.20;;;;;;;28.16;35.25;99641.66;6914245;28;20235;-87
2023/06/24 06:32:55;;;;;;;5.77;3.93;;;;;;;28.58;35.50;99645.22;6918537;28;20304;-87
2023/06/24 06:36:18;;;;;;;4.40;4.00;;;;;;;28.41;34.50;99616.34;6918650;28;20296;-87
2023/06/24 06:39:40;;;;;;;4.57;4.17;;;;;;;28.52;35.47;99640.88;6895365;28;20231;-87
2023/06/24 06:43:01;;;;;;;4.57;4.17;;;;;;;28.46;34.39;99641.25;6892184;28;20238;-87
2023/06/24 06:46:23;;;;;;;6.10;4.00;;;;;;;27.19;36.11;99609.06;6891726;28;20299;-87
2023/06/24 06:49:44;;;;;;;4.30;3.83;;;;;;;28.37;34.52;99638.31;6891055;28;20308;-87
2023/06/24 06:53:07;;;;;;;4.43;4.03;;;;;;;28.30;33.86;99632.31;6891505;28;20213;-90
2023/06/24 06:56:29;;;;;;;4.47;3.87;;;;;;;27.91;34.85;99620.69;6894743;28;20205;-89
2023/06/24 06:59:51;;;;;;;4.17;3.77;;;;;;;28.42;33.16;99574.44;6895045;28;20225;-90
2023/06/24 07:03:13;;;;;;;5.07;4.57;;;;;;;28.88;34.70;99630.00;6914198;28;20195;-88
2023/06/24 07:06:34;;;;;;;4.33;3.93;;;;;;;29.68;34.24;99637.69;6897747;28;20302;-89
2023/06/24 07:09:57;;;;;;;5.47;4.30;;;;;;;29.13;33.65;99594.28;6914135;28;20258;-89
2023/06/24 07:13:19;;;;;;;5.00;4.50;;;;;;;28.36;35.49;99639.41;6918432;28;20289;-88
2023/06/24 07:16:40;;;;;;;4.20;3.90;;;;;;;27.83;37.04;99639.94;6918711;28;20284;-89
2023/06/24 07:20:07;;;;;;;4.90;4.17;;;;;;;27.30;36.54;99578.19;6912372;28;20370;-88
2023/06/24 07:23:28;;;;;;;5.13;3.80;;;;;;;29.12;33.89;99637.09;6918440;28;20233;-89
2023/06/24 07:26:51;;;;;;;4.70;3.73;;;;;;;29.11;33.46;99635.44;6917987;28;20226;-89
2023/06/24 07:30:13;;;;;;;4.07;3.60;;;;;;;29.69;32.30;99633.78;6918866;28;20652;-89
2023/06/24 07:33:35;;;;;;;4.70;4.23;;;;;;;29.65;31.83;99637.47;6918247;28;20265;-88
2023/06/24 07:36:57;;;;;;;5.23;4.37;;;;;;;30.13;32.00;99635.91;6917485;28;20211;-85
2023/06/24 07:40:18;;;;;;;4.07;3.77;;;;;;;29.17;32.10;99623.09;6918941;28;20227;-84
2023/06/24 07:43:41;;;;;;;4.87;4.37;;;;;;;29.13;32.51;99626.81;6922914;28;20243;-86
2023/06/24 07:47:03;;;;;;;4.97;3.80;;;;;;;30.03;30.89;99636.09;6907429;28;20646;-88
2023/06/24 07:50:25;;;;;;;4.00;3.60;;;;;;;30.92;28.24;99591.38;6918481;28;20711;-90
2023/06/24 07:53:46;;;;;;;4.20;3.80;;;;;;;31.49;27.81;99631.38;6917458;28;20222;-89
2023/06/24 07:57:08;;;;;;;4.13;3.73;;;;;;;31.57;27.73;99625.00;6917141;28;20215;-89
2023/06/24 08:00:30;;;;;;;4.43;3.37;;;;;;;30.60;28.68;99627.00;6917289;28;20264;-89
2023/06/24 08:03:52;;;;;;;3.80;3.47;;;;;;;31.29;28.09;99554.72;6916978;28;20264;-89
2023/06/24 08:07:15;;;;;;;4.00;3.27;;;;;;;31.09;27.38;99526.56;6915565;28;20260;-88
2023/06/24 08:10:36;;;;;;;4.40;3.33;;;;;;;31.08;28.79;99616.88;6916202;28;20376;-87
2023/06/24 08:13:58;;;;;;;5.17;3.73;;;;;;;31.53;27.10;99554.28;6916881;28;20207;-87
2023/06/24 08:17:20;;;;;;;4.00;3.70;;;;;;;32.69;25.98;99608.13;6916490;28;20265;-88
2023/06/24 08:20:42;;;;;;;3.77;3.40;;;;;;;31.82;27.08;99613.94;6916468;28;20314;-87
2023/06/24 08:24:05;;;;;;;4.63;3.50;;;;;;;31.58;27.36;99618.25;6926092;28;20288;-87
2023/06/24 08:27:26;;;;;;;5.00;3.40;;;;;;;31.12;27.29;99585.25;6916465;28;20301;-88
2023/06/24 08:30:48;;;;;;;3.70;3.40;;;;;;;32.11;26.24;99607.75;6917182;28;20655;-88
2023/06/24 08:34:10;;;;;;;4.67;3.53;;;;;;;31.06;27.33;99613.56;6918409;28;20207;-87
2023/06/24 08:37:32;;;;;;;3.47;3.03;;;;;;;31.34;26.99;99598.31;6916057;28;20351;-87
2023/06/24 08:40:54;;;;;;;4.03;3.63;;;;;;;32.21;26.09;99580.38;6916868;28;20311;-87
2023/06/24 08:44:22;;;;;;;3.83;3.40;;;;;;;31.99;26.67;99602.00;6901808;28;20287;-88
2023/06/24 08:47:44;;;;;;;3.67;3.37;;;;;;;31.02;26.80;99537.34;6890699;28;20197;-87
2023/06/24 08:51:09;;;;;;;5.47;3.63;;;;;;;30.21;28.28;99602.63;6890482;28;20236;-86
2023/06/24 08:54:31;;;;;;;4.57;3.50;;;;;;;30.25;29.22;99591.66;6890115;28;20732;-87
2023/06/24 08:57:53;;;;;;;5.10;3.40;;;;;;;31.46;26.87;99587.38;6890920;28;20209;-86
2023/06/24 09:01:15;;;;;;;3.60;3.30;;;;;;;32.50;24.42;99577.78;6894361;28;20726;-87
2023/06/24 09:04:36;;;;;;;3.80;3.40;;;;;;;33.42;23.60;99582.69;6890845;28;20265;-87
2023/06/24 09:07:59;;;;;;;3.77;3.47;;;;;;;33.55;23.34;99584.41;6889192;28;20268;-86
2023/06/24 09:11:23;;;;;;;5.10;3.33;;;;;;;34.19;22.96;99597.84;6894403;28;20325;-86
2023/06/24 09:14:49;;;;;;;3.47;3.17;;;;;;;33.66;22.28;99524.94;6902160;28;20219;-84
2023/06/24 09:18:11;;;;;;;3.03;2.83;;;;;;;33.11;23.91;99588.50;6909013;28;20215;-84
2023/06/24 09:21:34;;;;;;;3.67;3.37;;;;;;;32.90;24.00;99587.56;6918509;28;20230;-84
2023/06/24 09:24:57;;;;;;;5.33;3.33;;;;;;;32.86;23.93;99586.63;6902909;28;20212;-84
2023/06/24 09:28:20;;;;;;;3.30;3.00;;;;;;;33.31;23.67;99571.03;6915655;28;20207;-84
2023/06/24 09:31:52;;;;;;;4.83;3.73;;;;;;;32.66;24.01;99564.91;6919978;28;20741;-84
2023/06/24 09:35:14;;;;;;;4.20;3.53;;;;;;;32.25;24.86;99547.88;6917934;28;20208;-84
2023/06/24 09:38:36;;;;;;;3.50;3.20;;;;;;;32.86;24.06;99563.44;6898998;28;20210;-85
2023/06/24 09:42:00;;;;;;;3.67;3.37;;;;;;;33.23;23.73;99551.47;6894528;28;20235;-84
2023/06/24 09:45:26;;;;;;;3.30;3.00;;;;;;;34.07;22.55;99555.00;6892783;28;20216;-85
2023/06/24 09:48:47;;;;;;;4.03;3.50;;;;;;;32.51;23.48;99557.06;6890467;28;20295;-89
2023/06/24 09:52:09;;;;;;;3.20;3.00;;;;;;;33.19;23.03;99551.31;6895042;28;20225;-86
2023/06/24 09:55:30;;;;;;;3.47;3.17;;;;;;;33.59;22.59;99527.47;6913414;28;20198;-86
2023/06/24 09:58:53;;;;;;;3.30;3.00;;;;;;;34.18;22.16;99522.59;6897828;28;20344;-89
2023/06/24 10:02:16;;;;;;;3.47;3.17;;;;;;;33.76;23.12;99538.53;6906983;28;20276;-83
2023/06/24 10:05:37;;;;;;;3.40;3.10;;;;;;;34.60;21.67;99543.84;6897789;28;20204;-85
2023/06/24 10:08:59;;;;;;;3.50;3.03;;;;;;;34.94;21.03;99471.44;6890752;28;20235;-86
2023/06/24 10:12:20;;;;;;;4.37;3.13;;;;;;;33.79;22.15;99521.09;6913626;28;20288;-85
2023/06/24 10:15:43;;;;;;;3.10;2.90;;;;;;;33.34;23.31;99508.03;6902654;28;20299;-85
2023/06/24 10:19:06;;;;;;;3.57;3.27;;;;;;;33.04;23.80;99523.94;6909401;28;20357;-85
2023/06/24 10:22:31;;;;;;;3.90;3.33;;;;;;;32.18;23.56;99516.81;6896483;28;20256;-84
2023/06/24 10:25:53;;;;;;;3.50;3.20;;;;;;;31.29;25.01;99489.75;6888004;28;20623;-87
2023/06/24 10:29:17;;;;;;;3.60;3.20;;;;;;;32.28;24.35;99504.53;6888794;28;20280;-88
2023/06/24 10:32:43;;;;;;;5.10;3.80;;;;;;;33.11;23.18;99496.28;6918215;28;20232;-88
2023/06/24 10:36:08;;;;;;;3.67;3.37;;;;;;;33.30;22.49;99504.28;6892211;28;20201;-88
2023/06/24 10:39:46;;;;;;;3.40;3.10;;;;;;;32.47;23.33;99499.41;6902990;28;20230;-88
2023/06/24 10:43:27;;;;;;;3.33;3.03;;;;;;;32.17;23.91;99497.59;6893887;28;20287;-88
2023/06/24 10:46:54;;;;;;;3.37;3.07;;;;;;;33.48;22.80;99438.69;6892400;28;20208;-88
2023/06/24 10:50:19;;;;;;;3.10;2.90;;;;;;;33.97;22.22;99446.22;6901192;28;20221;-87
2023/06/24 10:53:41;;;;;;;3.73;3.40;;;;;;;32.24;24.03;99484.81;6918335;28;20220;-86
2023/06/24 10:57:02;;;;;;;3.30;3.00;;;;;;;32.24;23.51;99417.84;6918632;28;20693;-88
2023/06/24 11:00:24;;;;;;;3.33;3.03;;;;;;;31.72;23.77;99426.56;6918677;28;20262;-87
2023/06/24 11:03:46;;;;;;;5.27;4.43;;;;;;;31.54;24.28;99475.88;6918449;28;20214;-86
2023/06/24 11:07:08;;;;;;;6.97;5.40;;;;;;;32.42;23.13;99466.91;6917646;28;20743;-86
2023/06/24 11:10:30;;;;;;;3.47;3.17;;;;;;;32.21;22.61;99409.28;6918426;28;20230;-87
2023/06/24 11:13:51;;;;;;;3.00;2.80;;;;;;;32.04;22.20;99382.22;6918465;28;20701;-89
2023/06/24 11:17:13;;;;;;;2.87;2.67;;;;;;;32.35;22.18;99447.03;6917838;28;20295;-83
2023/06/24 11:20:36;;;;;;;3.23;2.97;;;;;;;33.76;20.39;99456.56;6918541;28;20224;-87
2023/06/24 11:24:02;;;;;;;3.20;3.00;;;;;;;34.19;20.34;99435.47;6918131;28;20294;-88
2023/06/24 11:27:28;;;;;;;3.33;3.03;;;;;;;33.46;19.80;99446.59;6916163;28;20302;-85
2023/06/24 11:30:50;;;;;;;3.20;3.00;;;;;;;34.81;19.46;99433.34;6906444;28;20318;-86
2023/06/24 11:34:11;;;;;;;3.10;2.80;;;;;;;35.04;19.29;99420.50;6912522;28;20211;-86
2023/06/24 11:37:33;;;;;;;3.33;3.00;;;;;;;35.79;18.83;99418.91;6917010;28;20286;-87
2023/06/24 11:40:59;;;;;;;3.30;3.10;;;;;;;35.33;19.29;99419.47;6917602;28;20216;-87
2023/06/24 11:44:21;;;;;;;3.13;2.90;;;;;;;35.63;18.39;99429.22;6917118;28;20217;-86
2023/06/24 11:47:43;;;;;;;3.23;3.03;;;;;;;35.90;17.92;99417.25;6916962;28;20365;-87
2023/06/24 11:51:13;;;;;;;3.43;3.13;;;;;;;35.62;18.58;99417.19;6910657;28;20255;-86
2023/06/24 11:54:41;;;;;;;3.40;3.10;;;;;;;34.28;19.29;99397.03;6917209;28;20278;-87
2023/06/24 11:58:05;;;;;;;4.03;3.57;;;;;;;34.56;19.39;99406.44;6916904;28;20192;-87
2023/06/24 12:01:31;;;;;;;3.40;3.03;;;;;;;34.60;19.66;99404.56;6916112;28;20219;-86
2023/06/24 12:04:52;;;;;;;5.03;3.27;;;;;;;34.06;19.81;99402.16;6917023;28;20297;-87
2023/06/24 12:08:15;;;;;;;5.73;3.57;;;;;;;34.00;19.97;99390.38;6896610;28;20245;-88
2023/06/24 12:11:36;;;;;;;3.57;3.27;;;;;;;34.11;20.14;99341.19;6917003;28;20230;-87
2023/06/24 12:14:59;;;;;;;3.23;2.93;;;;;;;34.66;19.42;99355.53;6916353;28;20298;-86
2023/06/24 12:18:21;;;;;;;3.13;2.93;;;;;;;35.02;19.89;99379.97;6916058;28;20203;-87
2023/06/24 12:21:42;;;;;;;3.20;2.97;;;;;;;35.18;18.59;99324.78;6905799;28;20248;-86
2023/06/24 12:25:05;;;;;;;2.70;2.50;;;;;;;35.53;18.59;99366.00;6902557;28;20216;-86
2023/06/24 12:28:26;;;;;;;3.43;3.13;;;;;;;35.79;18.40;99362.78;6913042;28;20238;-85
2023/06/24 12:31:49;;;;;;;3.43;3.13;;;;;;;36.89;17.68;99317.63;6897129;28;20232;-86
2023/06/24 12:35:10;;;;;;;3.20;2.90;;;;;;;36.89;17.46;99352.16;6888132;28;20301;-86
2023/06/24 12:38:32;;;;;;;3.40;2.90;;;;;;;36.25;17.87;99292.69;6891873;28;20258;-86
2023/06/24 12:41:53;;;;;;;3.30;2.97;;;;;;;37.21;16.85;99347.31;6932718;28;20208;-86
2023/06/24 12:45:15;;;;;;;4.10;3.10;;;;;;;35.26;18.00;99262.97;6935405;28;20207;-86
2023/06/24 12:48:38;;;;;;;3.10;2.80;;;;;;;34.16;18.87;99264.56;6914535;28;20299;-86
2023/06/24 12:51:59;;;;;;;3.23;3.03;;;;;;;33.43;19.78;99294.28;6914769;28;20674;-87
2023/06/24 12:55:21;;;;;;;3.10;2.80;;;;;;;34.88;19.17;99329.88;6915140;28;20232;-86
2023/06/24 12:58:43;;;;;;;3.17;2.87;;;;;;;34.70;19.07;99333.22;6913994;28;20212;-86
2023/06/24 13:02:05;;;;;;;3.00;2.80;;;;;;;35.15;19.38;99334.75;6913911;28;20200;-85
2023/06/24 13:05:28;;;;;;;3.50;3.00;;;;;;;33.54;19.28;99253.53;6914466;28;20295;-86
2023/06/24 13:08:49;;;;;;;3.03;2.83;;;;;;;35.11;18.85;99305.78;6914142;28;20341;-85
2023/06/24 13:12:11;;;;;;;4.33;2.80;;;;;;;35.47;18.69;99314.13;6914657;28;20321;-85
2023/06/24 13:15:32;;;;;;;3.80;3.10;;;;;;;36.25;17.46;99328.41;6914442;28;20212;-85
2023/06/24 13:18:54;;;;;;;3.23;2.93;;;;;;;34.04;19.33;99320.53;6914024;28;20223;-85
2023/06/24 13:22:17;;;;;;;3.70;3.40;;;;;;;32.41;21.44;99316.44;6914936;28;20743;-85
2023/06/24 13:25:38;;;;;;;3.40;2.80;;;;;;;32.74;20.32;99268.00;6913971;28;20243;-85
2023/06/24 13:29:00;;;;;;;3.30;3.10;;;;;;;31.82;21.50;99323.84;6914027;28;20691;-85
2023/06/24 13:32:23;;;;;;;3.40;3.10;;;;;;;31.48;21.40;99250.56;6914027;28;20726;-85
2023/06/24 13:35:44;;;;;;;3.30;3.00;;;;;;;32.72;21.53;99311.38;6913713;28;20287;-85
2023/06/24 13:39:08;;;;;;;4.00;3.03;;;;;;;33.94;19.92;99292.97;6913858;28;20560;-85
2023/06/24 13:42:30;;;;;;;3.40;3.10;;;;;;;34.57;19.67;99307.22;6914131;28;20212;-85
2023/06/24 13:45:52;;;;;;;3.07;2.77;;;;;;;33.93;20.34;99306.16;6914308;28;20543;-85
2023/06/24 13:49:13;;;;;;;3.10;2.90;;;;;;;35.08;19.48;99297.25;6908319;28;20705;-84
2023/06/24 13:52:35;;;;;;;3.53;3.23;;;;;;;34.76;19.52;99290.66;6898925;28;20788;-85
2023/06/24 13:55:58;;;;;;;3.10;2.90;;;;;;;33.31;20.86;99291.44;6911596;28;20290;-85
2023/06/24 13:59:19;;;;;;;4.13;3.07;;;;;;;33.82;20.12;99290.13;6913031;28;20241;-85
2023/06/24 14:02:41;;;;;;;2.83;2.60;;;;;;;33.79;20.34;99294.44;6915338;28;20204;-85
2023/06/24 14:06:03;;;;;;;3.53;3.03;;;;;;;34.53;19.61;99236.25;6918612;28;20208;-85
2023/06/24 14:09:24;;;;;;;3.60;3.30;;;;;;;34.03;19.96;99238.53;6918298;28;20254;-85
2023/06/24 14:12:47;;;;;;;3.20;2.90;;;;;;;32.92;20.84;99257.53;6916960;28;20760;-84
2023/06/24 14:16:10;;;;;;;3.37;3.17;;;;;;;34.58;19.63;99268.78;6918363;28;20216;-84
2023/06/24 14:19:31;;;;;;;3.30;3.00;;;;;;;34.39;19.44;99272.19;6917826;28;20228;-85
2023/06/24 14:22:53;;;;;;;3.80;3.33;;;;;;;34.52;19.11;99230.97;6918179;28;20669;-85
2023/06/24 14:26:14;;;;;;;3.43;3.10;;;;;;;34.96;19.14;99252.44;6917792;28;20329;-85
2023/06/24 14:29:37;;;;;;;3.57;3.27;;;;;;;34.72;18.47;99244.84;6918025;28;20311;-85
2023/06/24 14:32:59;;;;;;;3.93;3.00;;;;;;;34.87;19.18;99249.78;6918179;28;20319;-85
2023/06/24 14:36:20;;;;;;;3.40;3.07;;;;;;;34.94;18.70;99249.97;6918755;28;20215;-85
2023/06/24 14:39:42;;;;;;;3.77;2.97;;;;;;;35.61;18.58;99247.16;6917803;28;20313;-84
2023/06/24 14:43:03;;;;;;;3.63;3.33;;;;;;;35.04;18.64;99251.47;6917580;28;20286;-85
2023/06/24 14:46:26;;;;;;;3.20;2.90;;;;;;;35.42;18.18;99235.03;6917273;28;20206;-85
2023/06/24 14:49:48;;;;;;;3.30;2.73;;;;;;;34.90;18.81;99246.25;6917758;28;20303;-85
2023/06/24 14:53:09;;;;;;;3.67;3.37;;;;;;;34.85;19.32;99240.06;6915689;28;20692;-84
2023/06/24 14:56:31;;;;;;;3.00;2.80;;;;;;;34.90;18.66;99232.22;6917126;28;20946;-85
2023/06/24 14:59:52;;;;;;;3.20;2.90;;;;;;;34.90;18.30;99226.63;6917164;28;20288;-84
2023/06/24 15:03:15;;;;;;;3.50;3.20;;;;;;;34.24;18.52;99235.63;6917612;28;20246;-85
2023/06/24 15:06:36;;;;;;;3.43;3.10;;;;;;;34.19;18.88;99233.88;6914604;28;20207;-85
2023/06/24 15:09:58;;;;;;;3.33;3.07;;;;;;;33.17;19.78;99159.50;6890332;28;20240;-85
2023/06/24 15:13:20;;;;;;;3.50;3.17;;;;;;;33.38;19.49;99204.22;6890394;28;20401;-89
2023/06/24 15:16:41;;;;;;;3.97;3.60;;;;;;;33.26;20.39;99220.91;6889508;28;20358;-87
2023/06/24 15:20:05;;;;;;;3.20;3.00;;;;;;;32.22;21.16;99207.16;6890720;28;20259;-88
2023/06/24 15:23:26;;;;;;;3.20;3.00;;;;;;;32.92;21.17;99221.22;6893702;28;20710;-85
2023/06/24 15:26:48;;;;;;;2.90;2.70;;;;;;;33.60;19.96;99182.22;6890341;28;20220;-87
2023/06/24 15:30:10;;;;;;;3.33;3.10;;;;;;;33.63;19.35;99167.56;6890522;28;20239;-90
2023/06/24 15:33:32;;;;;;;3.37;3.07;;;;;;;33.36;19.51;99190.56;6890186;28;20232;-87
2023/06/24 15:36:54;;;;;;;3.00;2.80;;;;;;;33.60;19.65;99201.81;6890280;28;20208;-88
2023/06/24 15:40:16;;;;;;;3.77;3.40;;;;;;;34.03;19.60;99195.75;6890320;28;20246;-88
2023/06/24 15:43:37;;;;;;;3.80;3.50;;;;;;;33.04;19.76;99146.66;6903570;28;20286;-87
2023/06/24 15:46:59;;;;;;;2.97;2.77;;;;;;;33.40;19.52;99176.72;6912295;28;20284;-87
2023/06/24 15:50:21;;;;;;;3.20;3.00;;;;;;;33.25;19.92;99189.31;6916875;28;20372;-85
2023/06/24 15:53:44;;;;;;;3.10;2.90;;;;;;;32.77;20.26;99185.53;6910415;28;21001;-86
2023/06/24 15:57:05;;;;;;;3.10;2.90;;;;;;;32.93;20.53;99194.91;6916144;28;20691;-86